TimeEDT,TemperatureF,Dew PointF,Humidity,Sea Level PressureIn,VisibilityMPH,Wind Direction,Wind SpeedMPH,Gust SpeedMPH,PrecipitationIn,Events,Conditions,WindDirDegrees,DateUTC
12:16 AM,49.3,45.5,87,30.00,10.0,Calm,Calm,-,N/A,,Clear,0,2013-07-24 04:16:00
12:35 AM,50.0,45.7,85,30.00,10.0,Calm,Calm,-,N/A,,Clear,0,2013-07-24 04:35:00
12:56 AM,49.1,45.5,87,30.00,10.0,Calm,Calm,-,N/A,,Clear,0,2013-07-24 04:56:00
1:16 AM,49.1,45.7,88,29.99,10.0,Calm,Calm,-,N/A,,Clear,0,2013-07-24 05:16:00
1:35 AM,49.5,45.9,87,30.00,10.0,Calm,Calm,-,N/A,,Clear,0,2013-07-24 05:35:00
1:56 AM,48.6,45.7,90,30.00,10.0,Calm,Calm,-,N/A,,Clear,0,2013-07-24 05:56:00
2:16 AM,49.1,46.2,90,30.01,10.0,Calm,Calm,-,N/A,,Clear,0,2013-07-24 06:16:00
2:35 AM,48.4,45.3,89,30.00,10.0,Calm,Calm,-,N/A,,Clear,0,2013-07-24 06:35:00
2:56 AM,47.5,44.6,90,30.00,10.0,Calm,Calm,-,N/A,,Clear,0,2013-07-24 06:56:00
3:16 AM,47.5,44.2,89,30.01,10.0,SW,3.5,-,N/A,,Clear,230,2013-07-24 07:16:00
3:36 AM,48.2,44.8,88,30.01,10.0,Calm,Calm,-,N/A,,Clear,0,2013-07-24 07:36:00
3:56 AM,46.6,42.6,86,30.01,10.0,Calm,Calm,-,N/A,,Clear,0,2013-07-24 07:56:00
4:16 AM,47.3,43.9,88,30.02,10.0,Calm,Calm,-,N/A,,Clear,0,2013-07-24 08:16:00
4:35 AM,46.8,43.3,88,30.02,10.0,Calm,Calm,-,N/A,,Clear,0,2013-07-24 08:35:00
4:56 AM,44.6,42.3,91,30.02,10.0,Calm,Calm,-,N/A,,Clear,0,2013-07-24 08:56:00
5:16 AM,44.8,42.6,92,30.03,10.0,Calm,Calm,-,N/A,,Clear,0,2013-07-24 09:16:00
5:35 AM,44.6,42.8,93,30.03,10.0,Calm,Calm,-,N/A,,Clear,0,2013-07-24 09:35:00
5:56 AM,44.2,42.4,93,30.04,10.0,Calm,Calm,-,N/A,,Clear,0,2013-07-24 09:56:00
6:50 AM,44.6,42.8,93,30.04,10.0,Calm,Calm,-,N/A,,Clear,0,2013-07-24 10:50:00
7:55 AM,50.0,46.4,87,30.08,10.0,Calm,Calm,-,N/A,,Clear,0,2013-07-24 11:55:00
8:50 AM,55.4,50.0,82,30.06,10.0,Calm,Calm,-,N/A,,Clear,0,2013-07-24 12:50:00
9:50 AM,62.6,46.4,55,30.07,10.0,Calm,Calm,-,N/A,,Clear,0,2013-07-24 13:50:00
10:50 AM,64.4,46.4,52,30.07,10.0,Calm,Calm,-,N/A,,Clear,0,2013-07-24 14:50:00
11:50 AM,66.2,44.6,46,30.06,10.0,Calm,Calm,-,N/A,,Clear,0,2013-07-24 15:50:00
12:50 PM,68.0,46.4,46,30.06,10.0,Calm,Calm,-,N/A,,Scattered Clouds,0,2013-07-24 16:50:00
1:50 PM,69.8,46.4,43,30.05,10.0,East,3.5,-,N/A,,Overcast,90,2013-07-24 17:50:00
2:50 PM,69.8,46.4,43,30.03,10.0,SSE,3.5,-,N/A,,Overcast,160,2013-07-24 18:50:00
3:50 PM,69.8,44.6,40,30.02,10.0,Calm,Calm,-,N/A,,Overcast,0,2013-07-24 19:50:00
4:50 PM,69.8,44.6,40,30.01,10.0,ESE,3.5,-,N/A,,Scattered Clouds,110,2013-07-24 20:50:00
5:50 PM,73.4,44.6,36,30.00,10.0,South,5.8,-,N/A,,Mostly Cloudy,180,2013-07-24 21:50:00
6:50 PM,68.0,50.0,52,30.01,10.0,SSW,16.1,-,N/A,,Mostly Cloudy,200,2013-07-24 22:50:00
7:50 PM,66.2,51.8,60,30.02,10.0,South,9.2,-,N/A,,Mostly Cloudy,190,2013-07-24 23:50:00
8:50 PM,64.4,51.8,64,30.02,10.0,SSW,8.1,-,N/A,,Mostly Cloudy,210,2013-07-25 00:50:00
9:45 PM,62.6,53.6,72,30.03,10.0,SSW,5.8,-,N/A,,Mostly Cloudy,210,2013-07-25 01:45:00
10:16 PM,61.2,53.6,76,30.02,10.0,SSW,5.8,-,N/A,,Overcast,210,2013-07-25 02:16:00
10:35 PM,60.8,53.2,76,30.02,10.0,SSW,5.8,-,N/A,,Overcast,200,2013-07-25 02:35:00
10:56 PM,59.7,53.1,79,30.02,10.0,SSW,3.5,-,N/A,,Overcast,210,2013-07-25 02:56:00
11:15 PM,59.4,53.1,80,30.02,10.0,SSW,5.8,-,N/A,,Overcast,210,2013-07-25 03:15:00
11:36 PM,58.8,52.7,80,30.02,10.0,SSW,4.6,-,N/A,,Mostly Cloudy,200,2013-07-25 03:36:00
11:56 PM,58.1,52.2,81,30.02,10.0,SSW,3.5,-,N/A,,Clear,210,2013-07-25 03:56:00